Time;durP1;ratioP1;P1;durP2;ratioP2;P2;SDS_P1;SDS_P2;PMS_P1;PMS_P2;Temp;Humidity;BMP_temperature;BMP_pressure;BME280_temperature;BME280_humidity;BME280_pressure;Samples;Min_cycle;Max_cycle;Signal;HPM_P1;HPM_P2
2023/04/28 00:00:39;;;;;;;5.53;2.80;;;;;;;6.00;100.00;100735.69;6132023;28;20423;-91
2023/04/28 00:03:41;;;;;;;5.32;3.03;;;;;;;6.00;100.00;100734.88;6124278;28;20503;-91
2023/04/28 00:06:44;;;;;;;5.97;3.17;;;;;;;5.99;100.00;100735.81;6111837;28;20043;-91
2023/04/28 00:09:46;;;;;;;4.78;2.50;;;;;;;5.97;100.00;100737.63;6131728;28;20059;-91
2023/04/28 00:12:51;;;;;;;5.32;2.78;;;;;;;5.97;100.00;100728.19;6123563;28;20505;-91
2023/04/28 00:15:53;;;;;;;4.63;3.03;;;;;;;5.99;100.00;100730.66;6120751;28;20412;-91
2023/04/28 00:18:55;;;;;;;4.85;2.75;;;;;;;6.00;100.00;100722.03;6123116;28;20122;-91
2023/04/28 00:21:57;;;;;;;5.82;2.78;;;;;;;6.03;100.00;100719.28;6128281;28;20043;-90
2023/04/28 00:25:02;;;;;;;6.53;3.03;;;;;;;6.06;100.00;100703.69;6101584;28;20153;-91
2023/04/28 00:28:03;;;;;;;3.60;2.90;;;;;;;6.06;100.00;100705.44;6122138;28;20487;-91
2023/04/28 00:31:13;;;;;;;5.65;3.22;;;;;;;6.12;100.00;100710.25;6135018;28;20046;-91
2023/04/28 00:34:15;;;;;;;5.95;3.10;;;;;;;6.11;100.00;100704.28;6118937;28;20079;-91
2023/04/28 00:37:17;;;;;;;6.43;3.45;;;;;;;6.12;100.00;100700.78;6130169;28;20178;-91
2023/04/28 00:40:18;;;;;;;4.60;3.03;;;;;;;6.12;100.00;100700.78;6131504;28;20532;-91
2023/04/28 00:43:20;;;;;;;5.43;3.30;;;;;;;6.13;100.00;100689.56;6122447;29;20040;-90
2023/04/28 00:46:30;;;;;;;7.63;3.08;;;;;;;6.14;100.00;100688.69;6130181;28;20236;-91
2023/04/28 00:49:33;;;;;;;5.07;3.20;;;;;;;6.15;100.00;100698.03;6124732;28;20046;-91
2023/04/28 00:52:36;;;;;;;5.43;3.20;;;;;;;6.14;100.00;100693.00;6123384;28;20051;-91
2023/04/28 00:55:39;;;;;;;5.65;2.90;;;;;;;6.13;100.00;100681.88;6116942;28;20043;-91
2023/04/28 00:58:41;;;;;;;9.65;3.05;;;;;;;6.15;100.00;100674.91;6113469;28;20043;-91
2023/04/28 01:01:43;;;;;;;4.93;2.80;;;;;;;6.15;100.00;100674.91;6126826;28;20027;-91
2023/04/28 01:04:45;;;;;;;4.28;3.13;;;;;;;6.14;100.00;100668.13;6124933;28;20133;-91
2023/04/28 01:07:48;;;;;;;6.85;3.15;;;;;;;6.14;100.00;100668.13;6105907;28;20052;-91
2023/04/28 01:10:55;;;;;;;5.85;3.45;;;;;;;6.16;100.00;100666.28;6126216;29;20508;-91
2023/04/28 01:14:17;;;;;;;5.63;3.15;;;;;;;6.16;100.00;100666.28;6129865;28;20059;-91
2023/04/28 01:17:20;;;;;;;4.85;3.03;;;;;;;6.15;100.00;100658.66;6138376;28;20146;-91
2023/04/28 01:20:22;;;;;;;5.07;2.90;;;;;;;6.15;100.00;100659.47;6137072;28;20647;-91
2023/04/28 01:23:24;;;;;;;5.70;3.20;;;;;;;6.16;100.00;100660.28;6119324;28;20044;-91
2023/04/28 01:26:26;;;;;;;4.13;3.30;;;;;;;6.12;100.00;100662.22;6102028;29;20051;-91
2023/04/28 01:29:28;;;;;;;5.90;3.33;;;;;;;6.09;100.00;100659.84;6113804;28;20067;-91
2023/04/28 01:32:30;;;;;;;5.47;3.20;;;;;;;6.08;100.00;100657.34;6098578;28;20051;-91
2023/04/28 01:35:32;;;;;;;6.20;3.20;;;;;;;6.07;100.00;100658.28;6125777;28;20122;-91
2023/04/28 01:38:34;;;;;;;5.43;3.30;;;;;;;6.04;100.00;100647.25;6132826;28;20082;-91
2023/04/28 01:41:36;;;;;;;6.18;3.53;;;;;;;6.04;100.00;100641.31;6139945;28;20126;-91
2023/04/28 01:44:38;;;;;;;5.63;3.58;;;;;;;6.05;100.00;100640.38;6106226;28;20114;-90
2023/04/28 01:47:39;;;;;;;7.35;3.58;;;;;;;6.02;100.00;100638.81;6131796;28;20055;-91
2023/04/28 01:50:42;;;;;;;7.68;3.65;;;;;;;6.03;100.00;100632.75;6117243;28;20051;-91
2023/04/28 01:53:43;;;;;;;5.70;3.45;;;;;;;6.02;100.00;100632.84;6121926;28;20043;-91
2023/04/28 01:56:46;;;;;;;5.32;3.15;;;;;;;5.99;100.00;100627.91;6123257;28;20040;-91
2023/04/28 01:59:50;;;;;;;7.63;3.78;;;;;;;5.96;100.00;100623.75;6115809;28;20056;-91
2023/04/28 02:02:51;;;;;;;7.82;3.90;;;;;;;5.88;100.00;100618.19;6125598;28;20051;-91
2023/04/28 02:05:54;;;;;;;5.50;3.85;;;;;;;5.80;100.00;100615.25;6115598;28;20051;-91
2023/04/28 02:08:55;;;;;;;7.45;4.13;;;;;;;5.73;100.00;100609.63;6111863;28;20051;-91
2023/04/28 02:12:01;;;;;;;5.75;3.75;;;;;;;5.68;100.00;100610.81;6130741;28;20653;-91
2023/04/28 02:15:03;;;;;;;6.78;3.92;;;;;;;5.63;100.00;100600.81;6122406;28;20043;-91
2023/04/28 02:18:05;;;;;;;6.78;4.00;;;;;;;5.60;100.00;100595.84;6127828;28;21106;-91
2023/04/28 02:21:13;;;;;;;6.18;3.83;;;;;;;5.56;100.00;100592.59;6131034;28;20039;-92
2023/04/28 02:24:15;;;;;;;5.30;3.40;;;;;;;5.55;100.00;100588.41;6131125;28;20050;-91
2023/04/28 02:27:17;;;;;;;8.13;3.60;;;;;;;5.54;100.00;100581.63;6125331;28;20043;-92
2023/04/28 02:30:19;;;;;;;9.20;3.83;;;;;;;5.58;100.00;100577.13;6115443;28;20157;-90
2023/04/28 02:33:22;;;;;;;6.93;4.32;;;;;;;5.57;100.00;100578.06;6129775;28;20043;-91
2023/04/28 02:36:24;;;;;;;6.18;3.80;;;;;;;5.52;100.00;100575.75;6103812;28;20055;-90
2023/04/28 02:39:26;;;;;;;5.10;3.35;;;;;;;5.59;100.00;100563.41;6130365;28;20126;-91
2023/04/28 02:42:30;;;;;;;5.82;4.18;;;;;;;5.55;100.00;100569.59;6121102;28;20274;-91
2023/04/28 02:45:34;;;;;;;7.43;4.60;;;;;;;5.60;100.00;100563.28;6137083;28;20046;-91
2023/04/28 02:48:36;;;;;;;6.88;3.63;;;;;;;5.65;100.00;100557.88;6114779;28;20043;-91
2023/04/28 02:51:38;;;;;;;7.10;4.18;;;;;;;5.67;100.00;100553.50;6095611;28;20418;-90
2023/04/28 02:54:40;;;;;;;8.75;4.30;;;;;;;5.69;100.00;100554.25;6110216;28;20043;-90
2023/04/28 02:57:42;;;;;;;9.27;3.70;;;;;;;5.64;100.00;100548.53;6137203;28;20043;-91
2023/04/28 03:00:44;;;;;;;5.15;3.75;;;;;;;5.59;100.00;100553.94;6134436;28;20564;-90
2023/04/28 03:03:46;;;;;;;5.43;4.13;;;;;;;5.54;100.00;100545.69;6120266;29;20054;-91
2023/04/28 03:06:49;;;;;;;5.90;3.92;;;;;;;5.49;100.00;100542.56;6133170;28;20050;-91
2023/04/28 03:09:51;;;;;;;6.95;4.30;;;;;;;5.48;100.00;100534.94;6119188;28;20506;-90
2023/04/28 03:12:52;;;;;;;9.45;4.18;;;;;;;5.45;100.00;100535.94;6139524;28;20501;-90
2023/04/28 03:15:54;;;;;;;6.65;4.03;;;;;;;5.40;100.00;100536.19;6120424;28;20036;-91
2023/04/28 03:18:56;;;;;;;4.72;3.78;;;;;;;5.38;100.00;100524.34;6106963;29;20047;-91
2023/04/28 03:21:59;;;;;;;6.57;4.25;;;;;;;5.37;100.00;100518.41;6125161;28;20051;-90
2023/04/28 03:25:01;;;;;;;7.63;4.28;;;;;;;5.35;100.00;100527.94;6137381;28;20090;-91
2023/04/28 03:28:09;;;;;;;5.88;4.00;;;;;;;5.35;100.00;100522.78;6129556;28;20066;-91
2023/04/28 03:31:11;;;;;;;7.95;4.25;;;;;;;5.34;100.00;100518.59;6127563;28;20043;-90
2023/04/28 03:34:15;;;;;;;7.10;4.20;;;;;;;5.38;100.00;100514.09;6114551;28;20071;-91
2023/04/28 03:37:17;;;;;;;6.90;4.07;;;;;;;5.40;100.00;100510.53;6130418;28;20062;-90
2023/04/28 03:40:20;;;;;;;6.85;3.83;;;;;;;5.45;100.00;100506.88;6123176;28;20050;-90
2023/04/28 03:43:41;;;;;;;9.02;3.83;;;;;;;5.46;100.00;100503.38;6133649;28;20119;-91
2023/04/28 03:47:03;;;;;;;5.47;3.83;;;;;;;5.40;100.00;100499.44;6138937;28;20063;-91
2023/04/28 03:50:06;;;;;;;10.18;3.75;;;;;;;5.34;100.00;100503.19;6127006;28;20406;-90
2023/04/28 03:53:09;;;;;;;6.07;4.57;;;;;;;5.31;100.00;100498.22;6115810;29;20142;-91
2023/04/28 03:56:11;;;;;;;6.03;4.30;;;;;;;5.29;100.00;100491.50;6100312;28;20043;-91
2023/04/28 03:59:13;;;;;;;7.85;4.45;;;;;;;5.26;100.00;100489.13;6132934;28;20475;-91
2023/04/28 04:02:16;;;;;;;6.45;3.92;;;;;;;5.27;100.00;100486.50;6135015;28;20413;-90
2023/04/28 04:05:18;;;;;;;7.57;4.05;;;;;;;5.34;100.00;100485.22;6115210;28;20242;-91
2023/04/28 04:08:21;;;;;;;6.88;4.45;;;;;;;5.39;100.00;100482.38;6096103;29;20055;-90
2023/04/28 04:11:22;;;;;;;4.60;3.78;;;;;;;5.52;100.00;100482.50;6132382;28;20129;-90
2023/04/28 04:14:24;;;;;;;6.50;4.50;;;;;;;5.59;100.00;100476.91;6127121;28;20054;-91
2023/04/28 04:17:26;;;;;;;6.55;4.57;;;;;;;5.64;100.00;100471.50;6115771;28;20055;-91
2023/04/28 04:20:28;;;;;;;5.93;3.97;;;;;;;5.73;100.00;100473.50;6111789;29;20078;-91
2023/04/28 04:23:30;;;;;;;7.50;4.03;;;;;;;5.80;100.00;100474.78;6128920;28;20051;-90
2023/04/28 04:26:32;;;;;;;8.35;4.30;;;;;;;5.86;100.00;100472.78;6119197;28;20048;-91
2023/04/28 04:29:34;;;;;;;6.43;3.92;;;;;;;5.92;100.00;100470.69;6099434;28;20043;-90
2023/04/28 04:32:41;;;;;;;10.02;4.30;;;;;;;5.96;100.00;100461.06;6110790;29;20064;-91
2023/04/28 04:35:43;;;;;;;9.43;4.35;;;;;;;6.00;100.00;100454.81;6121253;29;20442;-91
2023/04/28 04:38:45;;;;;;;10.73;4.53;;;;;;;6.05;100.00;100463.06;6119150;28;20043;-91
2023/04/28 04:41:50;;;;;;;7.05;4.13;;;;;;;6.10;100.00;100466.19;6128454;28;20047;-90
2023/04/28 04:45:06;;;;;;;6.75;4.63;;;;;;;6.19;100.00;100464.81;6119280;29;20118;-91
2023/04/28 04:48:08;;;;;;;7.60;4.15;;;;;;;6.24;100.00;100465.34;6115280;28;20040;-90
2023/04/28 04:51:10;;;;;;;7.45;4.03;;;;;;;6.34;100.00;100457.91;6112902;28;20464;-90
2023/04/28 04:54:12;;;;;;;6.45;4.25;;;;;;;6.43;100.00;100457.28;6112538;28;20043;-90
2023/04/28 04:57:16;;;;;;;6.95;4.28;;;;;;;6.41;100.00;100461.72;6115503;28;20047;-91
2023/04/28 05:00:38;;;;;;;8.48;4.50;;;;;;;6.49;100.00;100454.34;6129755;28;20134;-91
2023/04/28 05:03:42;;;;;;;5.78;4.15;;;;;;;6.55;100.00;100453.13;6116294;28;20151;-91
2023/04/28 05:06:44;;;;;;;7.78;4.28;;;;;;;6.65;100.00;100451.63;6107431;28;20085;-91
2023/04/28 05:09:46;;;;;;;5.05;4.18;;;;;;;6.68;100.00;100446.28;6120685;28;20051;-90
2023/04/28 05:12:49;;;;;;;5.25;4.22;;;;;;;6.75;100.00;100444.97;6124452;28;20044;-91
2023/04/28 05:15:52;;;;;;;7.30;4.25;;;;;;;6.81;100.00;100446.34;6101467;29;20522;-91
2023/04/28 05:19:28;;;;;;;6.60;4.50;;;;;;;6.85;100.00;100440.88;6068561;29;20590;-90
2023/04/28 05:22:30;;;;;;;7.22;4.03;;;;;;;6.93;100.00;100435.22;6069247;29;20071;-90
2023/04/28 05:25:32;;;;;;;6.18;4.13;;;;;;;6.94;100.00;100434.31;6068843;29;20049;-90
2023/04/28 05:28:35;;;;;;;7.13;4.30;;;;;;;7.04;100.00;100442.28;6067913;29;20049;-90
2023/04/28 05:31:37;;;;;;;8.68;4.50;;;;;;;7.11;100.00;100438.38;6046490;29;20415;-91
2023/04/28 05:34:38;;;;;;;6.93;4.63;;;;;;;7.20;100.00;100437.75;6068063;29;20515;-90
2023/04/28 05:37:42;;;;;;;8.25;4.38;;;;;;;7.31;100.00;100434.47;6068995;29;20048;-91
2023/04/28 05:40:44;;;;;;;6.78;4.40;;;;;;;7.37;100.00;100428.09;6069179;29;20143;-90
2023/04/28 05:43:49;;;;;;;8.40;4.40;;;;;;;7.42;100.00;100421.69;6068495;29;20523;-90
2023/04/28 05:46:52;;;;;;;9.25;4.53;;;;;;;7.50;100.00;100421.16;6068311;29;20060;-91
2023/04/28 05:49:58;;;;;;;5.05;4.07;;;;;;;7.61;100.00;100428.19;6066455;29;20165;-91
2023/04/28 05:53:01;;;;;;;6.13;4.35;;;;;;;7.73;100.00;100422.19;6053715;29;20048;-90
2023/04/28 05:56:04;;;;;;;6.03;4.22;;;;;;;7.85;100.00;100423.94;6098981;28;20110;-90
2023/04/28 05:59:07;;;;;;;9.02;4.35;;;;;;;8.04;100.00;100422.63;6124283;28;20118;-90
2023/04/28 06:02:11;;;;;;;6.65;4.72;;;;;;;8.27;100.00;100424.41;6102052;28;20993;-92
2023/04/28 06:05:13;;;;;;;5.38;4.35;;;;;;;8.45;100.00;100417.16;6121161;28;20051;-92
2023/04/28 06:08:16;;;;;;;8.18;4.80;;;;;;;8.61;100.00;100402.19;6114386;28;20383;-92
2023/04/28 06:11:21;;;;;;;7.60;4.80;;;;;;;8.75;100.00;100390.06;6123157;28;20054;-92
2023/04/28 06:14:23;;;;;;;6.75;4.40;;;;;;;8.84;100.00;100399.69;6112462;29;20054;-92
2023/04/28 06:17:25;;;;;;;8.27;4.93;;;;;;;8.92;100.00;100409.44;6114155;29;20051;-93
2023/04/28 06:20:27;;;;;;;10.75;5.93;;;;;;;8.93;100.00;100395.63;6118755;29;20055;-92
2023/04/28 06:23:30;;;;;;;8.55;5.18;;;;;;;9.03;100.00;100394.00;6107717;28;20040;-92
2023/04/28 06:26:32;;;;;;;5.65;4.68;;;;;;;9.12;100.00;100402.81;6116402;28;20043;-92
2023/04/28 06:29:34;;;;;;;7.00;4.95;;;;;;;9.24;100.00;100407.91;6113423;28;20047;-92
2023/04/28 06:32:36;;;;;;;11.60;4.60;;;;;;;9.32;100.00;100409.09;6132904;28;20637;-92
2023/04/28 06:35:38;;;;;;;6.57;4.75;;;;;;;9.43;100.00;100415.06;6141550;28;20476;-92
2023/04/28 06:38:42;;;;;;;7.32;4.95;;;;;;;9.54;100.00;100408.25;6139310;28;20058;-92
2023/04/28 06:41:46;;;;;;;10.38;5.47;;;;;;;9.56;100.00;100414.13;6134959;28;20047;-92
2023/04/28 06:44:48;;;;;;;6.28;4.90;;;;;;;9.67;100.00;100412.38;6134885;28;20579;-93
2023/04/28 06:47:54;;;;;;;10.35;5.25;;;;;;;9.84;100.00;100413.66;6126512;28;20047;-93
2023/04/28 06:50:56;;;;;;;8.32;5.07;;;;;;;9.94;100.00;100406.00;6129895;28;20576;-92
2023/04/28 06:53:59;;;;;;;12.32;5.47;;;;;;;9.95;100.00;100402.47;6120876;28;20103;-90
2023/04/28 06:57:01;;;;;;;10.60;5.38;;;;;;;9.97;100.00;100397.19;6129955;28;20426;-91
2023/04/28 07:00:03;;;;;;;10.38;4.82;;;;;;;10.08;100.00;100397.97;6119113;28;20059;-90
2023/04/28 07:03:05;;;;;;;10.00;5.05;;;;;;;10.25;100.00;100394.03;6122349;29;20050;-90
2023/04/28 07:06:07;;;;;;;9.57;4.78;;;;;;;10.52;100.00;100392.81;6133080;28;20126;-90
2023/04/28 07:09:10;;;;;;;7.82;5.00;;;;;;;10.85;100.00;100381.47;6137656;28;20043;-90
2023/04/28 07:12:12;;;;;;;9.13;5.20;;;;;;;11.24;100.00;100379.09;6129611;28;20143;-90
2023/04/28 07:15:14;;;;;;;8.07;5.00;;;;;;;11.53;100.00;100389.59;6118807;28;20119;-90
2023/04/28 07:18:15;;;;;;;7.63;5.00;;;;;;;11.66;100.00;100384.19;6117791;28;20035;-91
2023/04/28 07:21:17;;;;;;;8.13;5.10;;;;;;;11.75;100.00;100383.41;6122064;28;20070;-90
2023/04/28 07:24:19;;;;;;;9.27;5.43;;;;;;;11.82;100.00;100394.03;6117637;28;20058;-90
2023/04/28 07:27:22;;;;;;;7.72;5.10;;;;;;;11.88;100.00;100377.19;6130970;28;20043;-93
2023/04/28 07:30:25;;;;;;;11.10;5.50;;;;;;;12.06;100.00;100386.75;6130292;28;20047;-93
2023/04/28 07:33:28;;;;;;;7.32;4.90;;;;;;;12.21;100.00;100382.00;6137272;28;20047;-93
2023/04/28 07:36:30;;;;;;;9.43;5.95;;;;;;;12.35;100.00;100379.97;6136505;28;20072;-93
2023/04/28 07:39:33;;;;;;;7.32;4.90;;;;;;;12.47;100.00;100373.66;6131284;28;20043;-93
2023/04/28 07:42:36;;;;;;;8.60;5.43;;;;;;;12.57;100.00;100374.50;6137908;28;20066;-93
2023/04/28 07:45:39;;;;;;;10.80;5.22;;;;;;;12.66;100.00;100378.84;6139526;28;20486;-93
2023/04/28 07:48:41;;;;;;;7.90;5.82;;;;;;;12.75;100.00;100374.63;6123672;28;20043;-94
2023/04/28 07:51:43;;;;;;;8.75;5.78;;;;;;;12.84;100.00;100372.94;6120728;28;20051;-94
2023/04/28 07:54:45;;;;;;;7.07;5.35;;;;;;;12.98;100.00;100361.31;6120937;28;20044;-94
2023/04/28 07:57:48;;;;;;;7.80;5.20;;;;;;;13.14;100.00;100364.13;6117411;28;20039;-94
2023/04/28 08:00:50;;;;;;;7.18;5.68;;;;;;;13.28;100.00;100362.88;6122342;28;20044;-94
2023/04/28 08:03:52;;;;;;;9.35;5.65;;;;;;;13.40;100.00;100361.75;6127317;28;20039;-94
2023/04/28 08:06:54;;;;;;;8.73;5.45;;;;;;;13.53;100.00;100361.41;6124261;28;20050;-94
2023/04/28 08:09:56;;;;;;;13.07;6.07;;;;;;;13.67;100.00;100355.72;6119873;28;20164;-94
2023/04/28 08:12:58;;;;;;;12.05;6.30;;;;;;;13.90;100.00;100358.72;6133073;28;20534;-92
2023/04/28 08:16:00;;;;;;;8.80;5.57;;;;;;;14.06;100.00;100352.03;6118895;28;20035;-92
2023/04/28 08:19:05;;;;;;;13.07;5.53;;;;;;;14.18;100.00;100362.09;6128271;28;20186;-92
2023/04/28 08:22:07;;;;;;;9.60;5.88;;;;;;;14.23;100.00;100359.03;6113930;28;20043;-92
2023/04/28 08:25:09;;;;;;;6.70;5.47;;;;;;;14.20;100.00;100354.94;6120797;28;20043;-93
2023/04/28 08:28:11;;;;;;;12.43;6.13;;;;;;;14.33;100.00;100340.75;6115506;28;20153;-91
2023/04/28 08:31:13;;;;;;;8.15;6.28;;;;;;;14.47;100.00;100342.81;6121032;28;20043;-92
2023/04/28 08:34:15;;;;;;;10.73;6.13;;;;;;;14.60;100.00;100343.25;6144112;28;20261;-92
2023/04/28 08:37:17;;;;;;;7.65;5.82;;;;;;;14.67;100.00;100343.47;6133198;28;20059;-92
2023/04/28 08:40:19;;;;;;;9.27;6.25;;;;;;;14.77;100.00;100354.63;6128817;29;20234;-92
2023/04/28 08:43:21;;;;;;;8.43;5.93;;;;;;;14.83;100.00;100346.22;6132975;28;20155;-92
2023/04/28 08:46:26;;;;;;;8.90;6.07;;;;;;;14.81;100.00;100342.13;6135504;28;20047;-91
2023/04/28 08:49:35;;;;;;;10.40;6.88;;;;;;;14.64;100.00;100344.59;6126484;29;20055;-92
2023/04/28 08:52:38;;;;;;;11.10;6.60;;;;;;;14.29;100.00;100340.25;6137325;28;20067;-92
2023/04/28 08:55:41;;;;;;;8.90;6.20;;;;;;;13.87;100.00;100338.22;6134927;28;20055;-92
2023/04/28 08:58:43;;;;;;;9.68;6.35;;;;;;;13.52;100.00;100332.00;6126787;28;20344;-92
2023/04/28 09:01:48;;;;;;;11.75;6.25;;;;;;;13.32;100.00;100333.06;6137461;28;20109;-92
2023/04/28 09:04:50;;;;;;;11.05;6.70;;;;;;;13.26;100.00;100323.19;6124450;28;20043;-92
2023/04/28 09:07:52;;;;;;;10.65;6.90;;;;;;;13.38;100.00;100329.84;6130721;28;20068;-92
2023/04/28 09:11:09;;;;;;;9.85;6.40;;;;;;;13.65;100.00;100323.84;6123661;28;20051;-92
2023/04/28 09:14:12;;;;;;;10.32;6.43;;;;;;;14.02;100.00;100316.91;6109913;29;20102;-92
2023/04/28 09:17:15;;;;;;;9.60;7.05;;;;;;;14.52;100.00;100321.53;6122768;28;20075;-93
2023/04/28 09:20:21;;;;;;;7.50;6.22;;;;;;;15.11;100.00;100324.38;6132106;28;20055;-92
2023/04/28 09:23:23;;;;;;;10.23;6.88;;;;;;;15.44;100.00;100320.09;6126510;28;20043;-93
2023/04/28 09:26:25;;;;;;;11.20;6.53;;;;;;;15.60;100.00;100309.72;6120888;28;20506;-92
2023/04/28 09:29:28;;;;;;;8.15;6.00;;;;;;;15.61;100.00;100307.94;6125105;28;20043;-92
2023/04/28 09:32:30;;;;;;;9.88;6.68;;;;;;;15.67;100.00;100300.25;6139746;28;20050;-92
2023/04/28 09:35:44;;;;;;;8.93;6.05;;;;;;;15.84;100.00;100297.72;6123428;29;20039;-92
2023/04/28 09:38:46;;;;;;;9.07;6.65;;;;;;;16.00;100.00;100296.91;6130672;28;20055;-92
2023/04/28 09:41:48;;;;;;;13.55;7.07;;;;;;;16.08;100.00;100294.31;6129424;28;20035;-92
2023/04/28 09:44:53;;;;;;;10.43;7.07;;;;;;;16.06;100.00;100298.88;6122326;28;20050;-93
2023/04/28 09:48:09;;;;;;;10.93;6.85;;;;;;;15.93;100.00;100299.38;6126804;28;20075;-92
2023/04/28 09:51:19;;;;;;;8.75;6.57;;;;;;;15.78;100.00;100299.19;6124634;28;20383;-92
2023/04/28 09:54:25;;;;;;;9.52;6.43;;;;;;;15.52;100.00;100307.88;6101671;28;20051;-92
2023/04/28 09:57:31;;;;;;;11.57;7.07;;;;;;;15.24;100.00;100304.69;6121388;28;20215;-92
2023/04/28 10:00:34;;;;;;;12.98;7.47;;;;;;;14.96;100.00;100300.66;6137286;28;20130;-92
2023/04/28 10:03:39;;;;;;;9.32;7.78;;;;;;;14.71;100.00;100297.94;6129915;28;20505;-92
2023/04/28 10:06:43;;;;;;;11.70;6.97;;;;;;;14.54;100.00;100297.00;6130387;28;20066;-92
2023/04/28 10:09:50;;;;;;;12.50;7.45;;;;;;;14.48;100.00;100301.97;6135501;28;20546;-92
2023/04/28 10:12:52;;;;;;;9.18;6.82;;;;;;;14.38;100.00;100296.84;6121591;28;20505;-92
2023/04/28 10:15:54;;;;;;;10.48;6.97;;;;;;;14.33;100.00;100291.28;6137747;28;20047;-93
2023/04/28 10:18:56;;;;;;;14.57;7.95;;;;;;;14.38;100.00;100289.03;6123041;28;20047;-92
2023/04/28 10:22:43;;;;;;;11.65;7.55;;;;;;;14.52;100.00;100285.88;6121870;28;20082;-92
2023/04/28 10:25:48;;;;;;;14.02;7.82;;;;;;;14.72;100.00;100286.53;6116505;28;20043;-93
2023/04/28 10:28:50;;;;;;;11.25;7.70;;;;;;;14.92;100.00;100281.09;6120103;28;20557;-92
2023/04/28 10:32:22;;;;;;;8.55;6.90;;;;;;;15.29;100.00;100286.78;6131111;28;20040;-93
2023/04/28 10:35:41;;;;;;;9.75;7.20;;;;;;;15.68;100.00;100277.63;6123257;28;20054;-92
2023/04/28 10:39:08;;;;;;;11.20;8.02;;;;;;;15.90;100.00;100273.59;6124963;28;20031;-92
2023/04/28 10:42:47;;;;;;;11.35;7.60;;;;;;;15.88;100.00;100276.38;6125562;28;20031;-93
2023/04/28 10:45:59;;;;;;;11.32;7.55;;;;;;;15.80;100.00;100283.34;6129379;28;20058;-93
2023/04/28 10:49:02;;;;;;;10.85;7.32;;;;;;;15.69;100.00;100280.06;6116205;28;20063;-92
2023/04/28 10:52:43;;;;;;;12.60;7.40;;;;;;;15.70;100.00;100275.66;6119882;28;20167;-92
2023/04/28 10:56:04;;;;;;;9.77;7.32;;;;;;;15.79;100.00;100264.28;6112667;28;20044;-93
2023/04/28 10:59:27;;;;;;;9.48;7.55;;;;;;;16.05;100.00;100264.13;6127116;28;20039;-93
2023/04/28 11:02:36;;;;;;;10.38;7.50;;;;;;;16.10;100.00;100256.63;6135576;28;20094;-93
2023/04/28 11:06:25;;;;;;;11.50;7.47;;;;;;;16.02;100.00;100247.97;6126932;28;20047;-91
2023/04/28 11:09:32;;;;;;;13.43;8.45;;;;;;;15.93;100.00;100241.94;6119512;28;20048;-91
2023/04/28 11:12:34;;;;;;;11.85;7.72;;;;;;;15.98;100.00;100239.66;6126112;28;20486;-91
2023/04/28 11:15:37;;;;;;;10.57;8.50;;;;;;;16.03;100.00;100239.97;6099458;29;20051;-90
2023/04/28 11:19:03;;;;;;;12.60;8.60;;;;;;;16.36;100.00;100227.69;6125956;28;20046;-90
2023/04/28 11:22:20;;;;;;;11.40;7.88;;;;;;;17.06;100.00;100225.38;6120201;28;20175;-90
2023/04/28 11:25:23;;;;;;;11.85;7.85;;;;;;;17.41;100.00;100231.88;6134016;28;20538;-90
2023/04/28 11:28:24;;;;;;;12.73;8.00;;;;;;;17.50;100.00;100224.81;6141108;28;20043;-90
2023/04/28 11:31:27;;;;;;;13.35;8.30;;;;;;;17.46;100.00;100231.38;6137864;28;20097;-91
2023/04/28 11:34:29;;;;;;;13.10;8.57;;;;;;;17.41;100.00;100229.28;6130493;28;20074;-90
2023/04/28 11:37:31;;;;;;;10.80;8.02;;;;;;;17.42;100.00;100218.66;6122379;29;20317;-90
2023/04/28 11:40:34;;;;;;;10.07;7.47;;;;;;;17.31;100.00;100224.25;6129924;28;20070;-90
2023/04/28 11:43:36;;;;;;;13.40;8.23;;;;;;;16.99;100.00;100226.06;6132556;28;20055;-90
2023/04/28 11:46:54;;;;;;;10.95;8.20;;;;;;;16.55;100.00;100220.47;6128771;28;20082;-90
2023/04/28 11:49:57;;;;;;;10.63;7.93;;;;;;;16.24;100.00;100215.16;6116142;28;20102;-93
2023/04/28 11:52:59;;;;;;;13.38;7.65;;;;;;;15.92;100.00;100222.03;6120357;28;20466;-92
2023/04/28 11:56:07;;;;;;;11.48;8.27;;;;;;;15.50;100.00;100218.56;6122601;28;20370;-91
2023/04/28 11:59:10;;;;;;;11.85;8.35;;;;;;;15.28;100.00;100224.38;6124158;28;20043;-91
2023/04/28 12:02:12;;;;;;;13.30;9.07;;;;;;;15.14;100.00;100227.59;6127235;28;20082;-91
2023/04/28 12:05:14;;;;;;;12.80;9.35;;;;;;;14.88;100.00;100228.47;6128627;28;20398;-91
2023/04/28 12:08:27;;;;;;;14.35;9.88;;;;;;;14.63;100.00;100230.97;6126866;28;20110;-90
2023/04/28 12:11:30;;;;;;;13.40;10.07;;;;;;;14.55;100.00;100230.91;6138606;28;20489;-90
2023/04/28 12:14:52;;;;;;;14.90;10.20;;;;;;;14.46;100.00;100236.19;6146120;28;20042;-90
2023/04/28 12:17:54;;;;;;;13.85;9.73;;;;;;;14.44;100.00;100228.53;6144966;28;20043;-91
2023/04/28 12:20:56;;;;;;;17.48;10.80;;;;;;;14.49;100.00;100220.25;6149130;28;20493;-91
2023/04/28 12:23:58;;;;;;;14.43;10.35;;;;;;;14.70;100.00;100209.50;6121749;28;20054;-91
2023/04/28 12:27:23;;;;;;;18.40;10.93;;;;;;;14.85;100.00;100206.13;6119157;28;20078;-90
2023/04/28 12:30:27;;;;;;;19.00;11.05;;;;;;;14.68;100.00;100212.25;6129534;28;20043;-92
2023/04/28 12:33:30;;;;;;;17.08;10.95;;;;;;;14.43;100.00;100208.66;6126520;28;20194;-89
2023/04/28 12:36:31;;;;;;;16.23;10.77;;;;;;;14.20;100.00;100203.97;6125358;28;20569;-89
2023/04/28 12:39:35;;;;;;;17.90;11.98;;;;;;;14.06;100.00;100195.88;6112184;28;20051;-89
2023/04/28 12:42:40;;;;;;;17.80;12.35;;;;;;;14.09;100.00;100190.41;6123967;28;20047;-89
2023/04/28 12:45:42;;;;;;;20.80;12.82;;;;;;;14.53;100.00;100192.91;6132611;28;20067;-89
2023/04/28 12:48:44;;;;;;;18.13;11.90;;;;;;;15.08;100.00;100193.34;6115638;28;20043;-89
2023/04/28 12:51:45;;;;;;;18.67;10.80;;;;;;;15.51;100.00;100188.88;6116197;28;20048;-89
2023/04/28 12:54:48;;;;;;;17.10;11.68;;;;;;;15.98;100.00;100189.25;6134134;28;20501;-89
2023/04/28 12:57:50;;;;;;;15.75;11.32;;;;;;;16.19;100.00;100186.91;6137921;28;20447;-88
2023/04/28 13:00:52;;;;;;;15.45;11.27;;;;;;;16.17;100.00;100182.84;6126996;28;20047;-89
2023/04/28 13:03:54;;;;;;;16.77;11.50;;;;;;;16.15;100.00;100183.84;6109914;28;20174;-89
2023/04/28 13:06:57;;;;;;;16.30;10.88;;;;;;;16.10;100.00;100173.06;6130269;28;20043;-88
2023/04/28 13:09:59;;;;;;;15.68;11.68;;;;;;;16.02;100.00;100172.25;6136341;28;20067;-88
2023/04/28 13:13:01;;;;;;;18.23;11.55;;;;;;;15.96;100.00;100171.13;6129871;28;20130;-90
2023/04/28 13:16:03;;;;;;;16.27;11.45;;;;;;;15.83;100.00;100165.59;6126982;28;20063;-88
2023/04/28 13:19:09;;;;;;;18.95;11.63;;;;;;;15.93;100.00;100167.06;6122746;28;20063;-88
2023/04/28 13:22:11;;;;;;;16.77;11.98;;;;;;;16.00;100.00;100166.38;6126529;28;20063;-88
2023/04/28 13:25:14;;;;;;;17.42;11.52;;;;;;;15.93;100.00;100171.47;6122182;28;20067;-88
2023/04/28 13:28:15;;;;;;;14.27;10.82;;;;;;;15.75;100.00;100166.41;6121194;28;20568;-88
2023/04/28 13:31:18;;;;;;;16.38;11.63;;;;;;;15.57;100.00;100161.31;6121452;28;20083;-89
2023/04/28 13:34:20;;;;;;;15.30;10.65;;;;;;;15.41;100.00;100166.53;6128041;28;20533;-89
2023/04/28 13:37:22;;;;;;;16.50;10.27;;;;;;;15.36;100.00;100158.38;6135467;28;20051;-89
2023/04/28 13:40:24;;;;;;;18.13;10.80;;;;;;;15.32;100.00;100157.88;6125920;28;20513;-89
2023/04/28 13:43:25;;;;;;;16.40;10.68;;;;;;;15.21;100.00;100155.59;6137088;28;20146;-88
2023/04/28 13:46:28;;;;;;;16.17;11.35;;;;;;;15.05;100.00;100151.97;6140749;28;20711;-89
2023/04/28 13:49:29;;;;;;;12.95;10.75;;;;;;;14.97;100.00;100156.34;6127205;28;20047;-89
2023/04/28 13:52:31;;;;;;;15.45;10.27;;;;;;;14.87;100.00;100151.25;6124504;28;20638;-89
2023/04/28 13:55:35;;;;;;;15.98;10.65;;;;;;;14.78;100.00;100146.97;6132905;28;20435;-89
2023/04/28 13:58:36;;;;;;;17.63;10.70;;;;;;;14.79;100.00;100144.22;6125429;28;20043;-89
2023/04/28 14:01:40;;;;;;;16.85;10.50;;;;;;;14.81;100.00;100142.28;6127006;28;20047;-89
2023/04/28 14:04:49;;;;;;;17.23;11.20;;;;;;;14.93;100.00;100134.16;6122697;28;20051;-88
2023/04/28 14:07:54;;;;;;;14.98;9.73;;;;;;;15.00;100.00;100140.38;6124001;28;20126;-89